createdAt,value
2023-04-23T00:09:49.064Z,9.8
2023-04-23T00:19:51.587Z,9.8
2023-04-23T00:29:53.843Z,9.6
2023-04-23T00:39:55.993Z,9.6
2023-04-23T00:49:58.178Z,9.7
2023-04-23T01:00:00.285Z,9.6
2023-04-23T01:10:02.032Z,9.7
2023-04-23T01:20:03.955Z,9.5
2023-04-23T01:40:08.768Z,9.6
2023-04-23T01:50:11.153Z,9.7
2023-04-23T02:00:13.514Z,9.7
2023-04-23T02:20:17.333Z,9.5
2023-04-23T02:30:19.066Z,9.3
2023-04-23T02:40:21.043Z,9.2
2023-04-23T02:50:23.597Z,9.1
2023-04-23T03:00:25.991Z,9
2023-04-23T03:10:28.133Z,9
2023-04-23T03:20:30.357Z,8.9
2023-04-23T03:30:32.087Z,8.8
2023-04-23T03:50:36.645Z,8.6
2023-04-23T04:10:41.625Z,8.8
2023-04-23T04:20:43.564Z,8.8
2023-04-23T04:30:45.804Z,8.8
2023-04-23T04:40:48.257Z,8.7
2023-04-23T05:00:52.404Z,8.8
2023-04-23T05:10:54.555Z,8.8
2023-04-23T05:20:57.152Z,8.8
2023-04-23T05:31:08.953Z,8.9
2023-04-23T05:41:10.654Z,9
2023-04-23T05:51:12.682Z,9.3
2023-04-23T06:01:14.390Z,9.7
2023-04-23T06:11:16.346Z,10.3
2023-04-23T06:21:19.318Z,11
2023-04-23T06:31:21.033Z,11.5
2023-04-23T06:41:23.293Z,11.8
2023-04-23T06:51:25.788Z,12.2
2023-04-23T07:01:28.028Z,12.3
2023-04-23T07:11:29.719Z,12.3
2023-04-23T07:21:31.771Z,12.3
2023-04-23T07:31:33.730Z,12.6
2023-04-23T07:41:36.130Z,12.9
2023-04-23T07:51:38.279Z,13.2
2023-04-23T08:01:40.079Z,13.3
2023-04-23T08:11:42.409Z,13.8
2023-04-23T08:21:44.534Z,14.2
2023-04-23T08:31:46.742Z,14.4
2023-04-23T08:41:48.763Z,14.5
2023-04-23T08:51:51.092Z,14.8
2023-04-23T09:01:53.330Z,15
2023-04-23T09:11:55.700Z,15.3
2023-04-23T09:21:57.783Z,15.9
2023-04-23T09:32:00.456Z,16
2023-04-23T09:42:02.868Z,15.8
2023-04-23T09:52:05.362Z,16
2023-04-23T10:02:07.863Z,16.3
2023-04-23T10:12:21.074Z,16.5
2023-04-23T10:32:14.645Z,16.8
2023-04-23T10:52:21.631Z,16.4
2023-04-23T11:02:21.752Z,16.6
2023-04-23T11:22:25.607Z,17.1
2023-04-23T11:32:28.277Z,17.1
2023-04-23T11:42:30.008Z,17.1
2023-04-23T12:02:34.279Z,16.7
2023-04-23T12:22:39.033Z,13.9
2023-04-23T13:42:57.081Z,17.5
2023-04-23T13:52:58.850Z,17.3
2023-04-23T14:03:00.859Z,16.9
2023-04-23T14:13:02.655Z,17.9
2023-04-23T14:23:05.045Z,18.6
2023-04-23T14:33:06.873Z,18.5
2023-04-23T14:53:10.892Z,18.6
2023-04-23T15:03:13.500Z,18.3
2023-04-23T15:13:15.818Z,18.2
2023-04-23T15:23:18.451Z,18
2023-04-23T15:33:20.919Z,17.9
2023-04-23T15:43:23.361Z,17.8
2023-04-23T16:23:31.858Z,16.1
2023-04-23T16:33:33.376Z,15.4
2023-04-23T17:53:51.540Z,12.3
2023-04-23T19:24:11.308Z,11.2
2023-04-23T19:34:13.805Z,11.4
2023-04-23T20:54:30.650Z,11.9
2023-04-23T21:04:33.351Z,11.7
2023-04-23T21:14:35.085Z,11.8
2023-04-23T21:24:37.751Z,11.8
2023-04-23T21:34:40.416Z,11.7
2023-04-23T21:44:42.968Z,11.7
2023-04-23T21:54:45.118Z,11.6
2023-04-23T22:04:47.474Z,10.9
2023-04-23T22:14:49.219Z,10.8
2023-04-23T22:24:51.855Z,10.9
2023-04-23T22:34:54.336Z,11.1
2023-04-23T22:44:57.003Z,11.1
2023-04-23T22:54:59.517Z,11
2023-04-23T23:05:01.974Z,11
2023-04-23T23:15:04.343Z,11
2023-04-23T23:25:06.208Z,11
2023-04-23T23:35:08.583Z,11
2023-04-23T23:45:10.964Z,11.1
2023-04-23T23:55:13.259Z,11
